Time;durP1;ratioP1;P1;durP2;ratioP2;P2;SDS_P1;SDS_P2;PMS_P1;PMS_P2;Temp;Humidity;BMP_temperature;BMP_pressure;BME280_temperature;BME280_humidity;BME280_pressure;Samples;Min_cycle;Max_cycle;Signal;HPM_P1;HPM_P2
2023/05/19 00:01:36;;;;;;;41.80;20.38;;;;;;;31.22;73.13;100769.19;5094032;27;66383;-48
2023/05/19 00:04:07;;;;;;;35.75;19.50;;;;;;;31.22;73.17;100766.50;5095877;27;69356;-39
2023/05/19 00:06:40;;;;;;;35.60;18.00;;;;;;;31.09;72.71;100738.50;5096934;27;66074;-38
2023/05/19 00:09:11;;;;;;;34.30;17.60;;;;;;;31.29;72.53;100764.53;5099319;27;70214;-42
2023/05/19 00:11:42;;;;;;;37.95;17.75;;;;;;;31.29;72.66;100767.25;5094940;27;66580;-39
2023/05/19 00:14:13;;;;;;;35.22;18.05;;;;;;;31.32;72.22;100773.03;5093907;27;68809;-39
2023/05/19 00:16:44;;;;;;;29.10;16.23;;;;;;;31.26;72.27;100754.13;5071044;27;65896;-39
2023/05/19 00:19:16;;;;;;;38.42;17.85;;;;;;;31.42;72.83;100779.84;5099101;27;70253;-39
2023/05/19 00:21:48;;;;;;;36.20;17.98;;;;;;;31.42;72.37;100772.53;5090831;27;65305;-39
2023/05/19 00:24:19;;;;;;;29.55;16.27;;;;;;;31.48;72.47;100784.34;5106590;27;69097;-40
2023/05/19 00:26:50;;;;;;;27.63;16.67;;;;;;;31.50;72.46;100783.06;5088858;27;66097;-39
2023/05/19 00:29:21;;;;;;;28.80;16.63;;;;;;;31.54;72.11;100789.72;5110423;27;70456;-39
2023/05/19 00:31:53;;;;;;;29.10;16.60;;;;;;;31.52;72.45;100780.97;5082104;27;65905;-39
2023/05/19 00:34:27;;;;;;;31.23;15.75;;;;;;;31.56;72.26;100782.16;5089695;27;70317;-39
2023/05/19 00:36:58;;;;;;;23.98;15.40;;;;;;;31.35;72.26;100752.78;5102435;27;66680;-39
2023/05/19 00:39:29;;;;;;;29.83;13.63;;;;;;;31.61;72.59;100790.44;5078296;27;69903;-39
2023/05/19 00:42:01;;;;;;;22.58;14.07;;;;;;;31.58;72.03;100790.91;5096560;27;66391;-39
2023/05/19 00:44:32;;;;;;;33.38;15.85;;;;;;;31.63;73.74;100792.94;5104387;27;70370;-40
2023/05/19 00:47:03;;;;;;;28.15;15.18;;;;;;;31.56;73.13;100782.16;5098537;27;66809;-39
2023/05/19 00:49:35;;;;;;;17.58;12.45;;;;;;;31.68;70.79;100793.09;5097242;27;70779;-39
2023/05/19 00:52:06;;;;;;;12.23;10.93;;;;;;;31.73;69.91;100800.53;5104134;27;65416;-40
2023/05/19 00:54:39;;;;;;;12.52;10.70;;;;;;;31.75;69.48;100801.94;5081531;27;69395;-39
2023/05/19 00:57:20;;;;;;;12.02;10.15;;;;;;;31.79;69.29;100805.06;5074093;27;65499;-40
2023/05/19 00:59:52;;;;;;;12.13;9.65;;;;;;;31.81;68.99;100816.47;5079324;27;70154;-38
2023/05/19 01:02:23;;;;;;;13.83;9.93;;;;;;;31.80;68.75;100806.69;5110754;27;66427;-39
2023/05/19 01:04:56;;;;;;;11.35;9.15;;;;;;;31.85;68.74;100817.69;5085523;27;68532;-39
2023/05/19 01:07:27;;;;;;;12.95;10.27;;;;;;;31.44;68.56;100746.03;5104374;27;65003;-39
2023/05/19 01:09:59;;;;;;;11.88;10.43;;;;;;;31.91;68.25;100824.09;5101034;27;70621;-40
2023/05/19 01:12:30;;;;;;;10.75;9.75;;;;;;;31.94;67.73;100820.94;5083874;27;66128;-40
2023/05/19 01:15:04;;;;;;;9.52;8.48;;;;;;;31.95;68.04;100817.16;5105587;27;70550;-39
2023/05/19 01:17:34;;;;;;;;;;;;;;;31.70;69.03;100819.97;5083167;27;65835;-39
2023/05/19 01:20:24;;;;;;;9.88;8.95;;;;;;;31.72;68.11;100801.59;5087354;27;70168;-40
2023/05/19 01:23:38;;;;;;;14.80;8.63;;;;;;;31.86;68.04;100835.63;5089504;27;65678;-40
2023/05/19 01:26:28;;;;;;;12.82;9.65;;;;;;;31.97;67.46;100826.72;4997362;28;70024;-39
2023/05/19 01:29:16;;;;;;;10.10;8.70;;;;;;;32.04;66.88;100832.91;5086110;27;66057;-40
2023/05/19 01:31:49;;;;;;;9.35;8.32;;;;;;;32.02;66.95;100816.03;5079651;27;69079;-39
2023/05/19 01:34:22;;;;;;;9.30;8.45;;;;;;;32.12;66.95;100839.06;5100647;27;66222;-40
2023/05/19 01:36:55;;;;;;;9.50;8.68;;;;;;;32.08;66.90;100822.41;5091326;27;69292;-39
2023/05/19 01:39:25;;;;;;;;;;;;;;;31.89;68.03;100829.72;5089505;27;66275;-39
2023/05/19 01:41:57;;;;;;;9.57;8.57;;;;;;;32.16;66.98;100832.13;5098444;27;70538;-39
2023/05/19 01:44:30;;;;;;;10.25;9.25;;;;;;;32.21;66.78;100826.84;5082892;27;66377;-41
2023/05/19 01:47:03;;;;;;;10.40;8.80;;;;;;;32.23;66.42;100827.41;5074179;27;70500;-40
2023/05/19 01:49:33;;;;;;;9.52;8.55;;;;;;;32.18;66.41;100816.44;5094619;27;65876;-39
2023/05/19 01:52:05;;;;;;;9.60;8.77;;;;;;;32.19;66.45;100823.53;5105047;27;70052;-39
2023/05/19 01:54:36;;;;;;;9.00;8.13;;;;;;;32.29;66.26;100829.22;5090858;27;65704;-39
2023/05/19 01:57:31;;;;;;;9.00;8.10;;;;;;;32.34;65.84;100836.66;5097091;27;70269;-40
2023/05/19 02:00:22;;;;;;;8.75;7.97;;;;;;;32.29;66.30;100837.38;5064116;27;66823;-41
2023/05/19 02:02:57;;;;;;;8.75;7.93;;;;;;;32.36;65.96;100835.38;5103778;27;69872;-40
2023/05/19 02:05:38;;;;;;;9.93;7.95;;;;;;;32.41;65.71;100843.66;5088127;27;65429;-39
2023/05/19 02:08:33;;;;;;;8.88;8.10;;;;;;;32.31;65.72;100827.09;5083622;27;69974;-39
2023/05/19 02:11:31;;;;;;;8.55;7.85;;;;;;;32.41;65.90;100854.53;5101692;27;65686;-62
2023/05/19 02:14:32;;;;;;;8.73;7.93;;;;;;;32.50;65.39;100852.31;5085114;27;69352;-69
2023/05/19 02:17:05;;;;;;;9.05;8.18;;;;;;;32.49;65.28;100837.94;5070289;27;66161;-40
2023/05/19 02:19:41;;;;;;;12.35;7.90;;;;;;;32.01;65.26;100745.69;5102090;27;70461;-39
2023/05/19 02:22:12;;;;;;;9.60;8.80;;;;;;;32.59;65.08;100836.53;5077328;27;65671;-39
2023/05/19 02:24:45;;;;;;;9.07;8.27;;;;;;;32.60;65.15;100835.47;5097630;27;70224;-40
2023/05/19 02:27:16;;;;;;;8.98;8.15;;;;;;;32.64;64.83;100833.94;5092122;27;65849;-39
2023/05/19 02:29:47;;;;;;;9.23;7.70;;;;;;;32.62;64.71;100830.63;5071234;27;70062;-39
2023/05/19 02:32:19;;;;;;;8.88;8.00;;;;;;;32.69;64.60;100834.91;5077782;27;66388;-39
2023/05/19 02:34:52;;;;;;;9.00;8.30;;;;;;;32.67;64.55;100825.31;5069935;27;69981;-40
2023/05/19 02:37:27;;;;;;;;;;;;;;;32.47;65.56;100822.94;5084687;27;66184;-39
2023/05/19 02:39:58;;;;;;;8.85;8.02;;;;;;;32.72;64.62;100831.72;5076822;27;70093;-39
2023/05/19 02:42:30;;;;;;;8.68;7.88;;;;;;;32.78;64.05;100832.66;5096430;27;66861;-39
2023/05/19 02:45:01;;;;;;;9.07;7.68;;;;;;;32.81;64.23;100831.38;5096805;27;70566;-40
2023/05/19 02:47:33;;;;;;;8.85;8.13;;;;;;;32.82;64.13;100836.56;5098790;27;66451;-39
2023/05/19 02:50:07;;;;;;;9.15;8.27;;;;;;;32.86;63.99;100829.59;5076653;27;69293;-39
2023/05/19 02:52:39;;;;;;;8.57;7.80;;;;;;;32.85;64.00;100833.38;5100686;27;66441;-39
2023/05/19 02:55:15;;;;;;;13.45;8.00;;;;;;;32.90;63.87;100824.50;5102425;27;70070;-39
2023/05/19 02:57:47;;;;;;;8.32;7.63;;;;;;;32.93;63.77;100834.91;5095714;27;65653;-38
2023/05/19 03:00:18;;;;;;;7.82;7.30;;;;;;;32.93;63.63;100835.75;5055030;27;68903;-38
2023/05/19 03:02:51;;;;;;;8.35;7.72;;;;;;;32.97;63.25;100832.56;5082944;27;66022;-39
2023/05/19 03:05:23;;;;;;;8.75;8.05;;;;;;;33.01;63.43;100831.06;5068499;27;70057;-38
2023/05/19 03:07:54;;;;;;;8.02;7.32;;;;;;;33.04;63.33;100833.28;5096726;27;65291;-39
2023/05/19 03:10:25;;;;;;;8.25;7.07;;;;;;;32.92;63.24;100815.06;5102312;27;70175;-40
2023/05/19 03:12:56;;;;;;;7.90;7.10;;;;;;;33.06;63.16;100829.28;5101432;27;65961;-39
2023/05/19 03:15:27;;;;;;;8.07;7.30;;;;;;;33.07;62.95;100830.09;5080569;27;70714;-38
2023/05/19 03:17:58;;;;;;;7.93;7.30;;;;;;;33.01;63.05;100809.31;5086455;27;66380;-39
2023/05/19 03:20:29;;;;;;;8.23;7.50;;;;;;;33.08;62.80;100826.34;5066069;27;70241;-40
2023/05/19 03:23:01;;;;;;;8.70;7.68;;;;;;;33.06;62.97;100806.72;5102315;27;65399;-39
2023/05/19 03:25:32;;;;;;;7.88;7.28;;;;;;;33.00;62.67;100792.19;5081083;27;69687;-39
2023/05/19 03:28:04;;;;;;;9.90;7.07;;;;;;;33.12;62.77;100813.91;5088068;27;65449;-39
2023/05/19 03:30:36;;;;;;;8.52;7.13;;;;;;;33.13;62.67;100816.41;5105029;27;69465;-38
2023/05/19 03:33:16;;;;;;;8.50;6.88;;;;;;;33.17;62.66;100813.22;5082628;27;66930;-39
2023/05/19 03:35:48;;;;;;;7.43;6.90;;;;;;;33.18;62.55;100802.09;5075250;27;70733;-39
2023/05/19 03:38:22;;;;;;;;;;;;;;;32.91;63.03;100816.13;5097512;27;66260;-38
2023/05/19 03:40:58;;;;;;;7.90;6.93;;;;;;;33.16;62.49;100806.94;5082366;27;69422;-39
2023/05/19 03:43:29;;;;;;;7.25;6.65;;;;;;;33.20;62.32;100802.69;5079089;27;66302;-41
2023/05/19 03:46:04;;;;;;;7.55;6.82;;;;;;;33.20;62.39;100789.09;5085414;27;71346;-40
2023/05/19 03:49:15;;;;;;;7.93;7.22;;;;;;;32.92;61.86;100740.88;5026266;28;66666;-39
2023/05/19 03:52:04;;;;;;;8.43;7.63;;;;;;;33.28;62.11;100796.06;5025758;28;70490;-38
2023/05/19 03:54:51;;;;;;;9.05;6.75;;;;;;;33.27;62.00;100786.25;5066225;27;65241;-39
2023/05/19 03:57:23;;;;;;;7.93;7.13;;;;;;;33.31;61.60;100788.25;5085269;27;69444;-38
2023/05/19 03:59:57;;;;;;;8.07;7.25;;;;;;;33.33;61.95;100780.69;5098801;27;66821;-38
2023/05/19 04:02:35;;;;;;;7.70;7.10;;;;;;;33.24;61.40;100760.38;5069705;27;70006;-39
2023/05/19 04:05:09;;;;;;;10.25;7.15;;;;;;;33.38;61.61;100771.81;5106939;27;66241;-39
2023/05/19 04:07:41;;;;;;;8.80;7.35;;;;;;;33.41;61.62;100770.50;5098969;27;70300;-39
2023/05/19 04:10:13;;;;;;;7.75;7.15;;;;;;;33.42;61.44;100758.56;5110512;27;66429;-39
2023/05/19 04:12:45;;;;;;;7.55;6.93;;;;;;;33.44;61.40;100756.44;5092841;27;69343;-38
2023/05/19 04:15:17;;;;;;;8.10;7.30;;;;;;;33.42;61.37;100750.41;5099209;27;66339;-39
2023/05/19 04:17:48;;;;;;;7.65;7.00;;;;;;;33.40;61.27;100747.91;5095954;27;70074;-40
2023/05/19 04:20:19;;;;;;;7.80;7.00;;;;;;;33.49;61.48;100745.63;5076379;27;66407;-40
2023/05/19 04:22:56;;;;;;;8.38;7.72;;;;;;;33.52;60.89;100745.19;5106575;27;70949;-39
2023/05/19 04:25:27;;;;;;;8.10;7.13;;;;;;;33.54;61.10;100748.50;5074476;27;66418;-40
2023/05/19 04:27:59;;;;;;;8.63;7.60;;;;;;;33.57;60.77;100742.56;5079177;27;70635;-39
2023/05/19 04:30:32;;;;;;;9.60;7.25;;;;;;;33.57;61.17;100737.13;5080639;27;66406;-39
2023/05/19 04:33:03;;;;;;;7.13;6.60;;;;;;;33.62;60.77;100739.13;5073848;27;69700;-40
2023/05/19 04:35:36;;;;;;;9.33;7.70;;;;;;;33.61;60.55;100735.59;5062291;27;66106;-39
2023/05/19 04:38:11;;;;;;;7.45;6.97;;;;;;;33.64;60.64;100732.38;5086882;27;69648;-39
2023/05/19 04:40:43;;;;;;;7.47;6.95;;;;;;;33.59;60.49;100724.94;5096251;27;65765;-39
2023/05/19 04:43:14;;;;;;;8.30;6.90;;;;;;;33.69;60.65;100732.47;5099516;27;69660;-41
2023/05/19 04:45:48;;;;;;;7.75;6.88;;;;;;;33.69;60.67;100727.03;5078443;27;66049;-38
2023/05/19 04:48:23;;;;;;;7.82;7.22;;;;;;;33.74;60.40;100720.84;5084675;27;70400;-39
2023/05/19 04:50:54;;;;;;;7.78;7.00;;;;;;;33.74;60.39;100721.69;5086878;27;65790;-40
2023/05/19 04:53:25;;;;;;;9.07;7.30;;;;;;;33.75;60.38;100717.91;5063413;27;69991;-38
2023/05/19 04:55:57;;;;;;;8.10;7.40;;;;;;;33.67;60.10;100688.38;5092985;27;67385;-40
2023/05/19 04:58:30;;;;;;;7.53;6.90;;;;;;;33.75;60.01;100698.84;5087850;27;69863;-39
2023/05/19 05:01:02;;;;;;;8.97;7.90;;;;;;;33.83;60.04;100704.97;5100661;27;66763;-40
2023/05/19 05:03:36;;;;;;;8.77;7.38;;;;;;;33.85;59.91;100700.09;5101580;27;69508;-40
2023/05/19 05:06:07;;;;;;;;;;;;;;;33.57;60.23;100699.91;5094411;27;65387;-39
2023/05/19 05:08:40;;;;;;;7.70;7.22;;;;;;;33.81;59.99;100697.88;5068592;27;70074;-39
2023/05/19 05:11:30;;;;;;;8.60;7.40;;;;;;;33.85;59.51;100684.63;5105789;27;65721;-41
2023/05/19 05:14:03;;;;;;;7.57;6.97;;;;;;;33.86;59.41;100678.09;5081914;27;70095;-41
2023/05/19 05:16:35;;;;;;;8.20;7.57;;;;;;;33.93;59.08;100677.94;5071714;27;66170;-40
2023/05/19 05:19:07;;;;;;;8.75;7.90;;;;;;;33.97;59.41;100684.56;5083706;27;69763;-40
2023/05/19 05:21:40;;;;;;;8.13;7.47;;;;;;;33.96;59.14;100680.16;5067828;27;66166;-39
2023/05/19 05:24:12;;;;;;;8.88;8.25;;;;;;;33.96;58.88;100666.56;5102254;27;69914;-41
2023/05/19 05:26:49;;;;;;;8.50;7.90;;;;;;;34.03;59.22;100661.78;5086176;27;66692;-41
2023/05/19 05:29:21;;;;;;;8.80;7.95;;;;;;;34.04;59.18;100660.69;5098386;27;70311;-39
2023/05/19 05:31:52;;;;;;;8.57;7.80;;;;;;;34.06;59.07;100652.34;5055500;27;66068;-40
2023/05/19 05:34:24;;;;;;;8.50;7.70;;;;;;;34.08;58.65;100656.47;5055404;27;70347;-40
2023/05/19 05:36:56;;;;;;;8.27;7.68;;;;;;;34.12;58.79;100652.16;5079220;27;65901;-41
2023/05/19 05:39:28;;;;;;;9.43;8.48;;;;;;;34.11;58.39;100650.53;5065350;27;70895;-39
2023/05/19 05:41:59;;;;;;;7.85;7.43;;;;;;;34.14;58.62;100650.03;5062011;27;66086;-39
2023/05/19 05:44:33;;;;;;;8.32;7.65;;;;;;;34.20;58.50;100646.28;5096151;27;69336;-40
2023/05/19 05:47:05;;;;;;;8.27;7.57;;;;;;;34.23;58.56;100637.63;5082059;27;66162;-39
2023/05/19 05:49:37;;;;;;;;;;;;;;;33.98;58.45;100639.94;5072552;27;70322;-39
2023/05/19 05:52:10;;;;;;;8.63;8.02;;;;;;;34.24;57.96;100622.97;5087006;27;66566;-38
2023/05/19 05:54:46;;;;;;;8.60;8.05;;;;;;;34.17;58.41;100595.06;5095044;27;70614;-39
2023/05/19 05:57:20;;;;;;;8.88;8.27;;;;;;;34.33;58.02;100611.66;5091629;27;65884;-39
2023/05/19 05:59:52;;;;;;;9.10;8.40;;;;;;;34.37;58.06;100601.88;5095004;27;70429;-39
2023/05/19 06:02:23;;;;;;;9.95;9.00;;;;;;;34.35;57.47;100590.41;5086058;27;66390;-40
2023/05/19 06:04:56;;;;;;;9.52;8.93;;;;;;;34.35;57.50;100583.09;5091385;27;70341;-41
2023/05/19 06:07:27;;;;;;;9.30;8.60;;;;;;;34.45;57.61;100590.56;5087895;27;67071;-39
2023/05/19 06:09:58;;;;;;;9.57;8.80;;;;;;;34.45;57.63;100579.69;5099138;27;69858;-44
2023/05/19 06:12:50;;;;;;;9.30;8.48;;;;;;;34.49;57.22;100580.81;5099666;27;66320;-39
2023/05/19 06:15:23;;;;;;;9.18;8.50;;;;;;;34.56;57.27;100567.88;5098021;27;70010;-41
2023/05/19 06:18:08;;;;;;;8.80;8.10;;;;;;;34.44;57.38;100540.72;5074886;27;66883;-41
2023/05/19 06:20:40;;;;;;;10.73;8.40;;;;;;;34.35;57.29;100525.91;5094240;27;70002;-39
2023/05/19 06:23:11;;;;;;;8.77;8.18;;;;;;;34.64;56.97;100563.88;5096537;27;65984;-39
2023/05/19 06:25:43;;;;;;;9.80;8.73;;;;;;;34.62;57.32;100546.97;5110771;27;69644;-42
2023/05/19 06:28:15;;;;;;;9.35;8.55;;;;;;;34.72;56.60;100549.81;5087697;27;66265;-40
2023/05/19 06:30:46;;;;;;;;;;;;;;;34.48;56.55;100546.47;5104110;27;70172;-39
2023/05/19 06:33:23;;;;;;;9.20;8.50;;;;;;;34.64;56.74;100528.47;5099106;27;66232;-39
2023/05/19 06:35:58;;;;;;;9.07;8.43;;;;;;;34.28;56.43;100448.22;5081701;27;68609;-40
2023/05/19 06:38:31;;;;;;;10.45;8.68;;;;;;;34.83;56.16;100529.78;5112824;27;66345;-40
2023/05/19 06:41:01;;;;;;;;;;;;;;;34.62;56.29;100526.00;5097727;27;70301;-39
2023/05/19 06:43:32;;;;;;;8.93;8.32;;;;;;;34.88;56.46;100518.94;5096051;27;67071;-38
2023/05/19 06:46:05;;;;;;;9.60;8.88;;;;;;;34.94;55.86;100511.63;5117583;27;69563;-41
2023/05/19 06:48:35;;;;;;;9.52;8.80;;;;;;;34.97;56.23;100504.84;5100220;27;66176;-39
2023/05/19 06:51:09;;;;;;;9.60;8.68;;;;;;;35.02;56.00;100503.00;5097874;27;70011;-40
2023/05/19 06:53:41;;;;;;;8.45;7.95;;;;;;;35.05;55.94;100498.91;5098291;27;66164;-39
2023/05/19 06:56:14;;;;;;;9.77;8.70;;;;;;;35.12;55.81;100492.19;5094325;27;70082;-40
2023/05/19 06:58:46;;;;;;;9.15;8.20;;;;;;;35.16;55.86;100480.78;5103914;27;65596;-39
2023/05/19 07:01:17;;;;;;;8.73;7.93;;;;;;;35.21;55.23;100478.09;5095030;27;69080;-39
2023/05/19 07:03:55;;;;;;;9.43;8.50;;;;;;;35.24;55.20;100477.59;5095379;27;65932;-39
2023/05/19 07:06:26;;;;;;;9.60;8.68;;;;;;;35.24;55.23;100467.50;5108933;27;69948;-40
2023/05/19 07:08:58;;;;;;;8.77;8.18;;;;;;;35.32;55.28;100464.28;5100928;27;66870;-40
2023/05/19 07:11:31;;;;;;;9.88;9.07;;;;;;;35.35;55.07;100452.88;5091763;27;70567;-40
2023/05/19 07:14:03;;;;;;;9.07;8.05;;;;;;;35.36;54.55;100448.25;5078226;27;65594;-39
2023/05/19 07:16:34;;;;;;;9.27;8.43;;;;;;;35.40;54.56;100443.91;5073427;27;69947;-39
2023/05/19 07:19:06;;;;;;;8.27;7.70;;;;;;;35.45;54.48;100445.84;5083679;27;66655;-39
2023/05/19 07:21:38;;;;;;;8.68;7.80;;;;;;;35.45;54.76;100438.47;5083218;27;70313;-39
2023/05/19 07:24:10;;;;;;;9.05;8.35;;;;;;;35.21;54.04;100396.31;5100504;27;67440;-39
2023/05/19 07:26:41;;;;;;;8.85;8.25;;;;;;;35.53;54.05;100448.91;5089915;27;70777;-38
2023/05/19 07:29:12;;;;;;;8.18;7.50;;;;;;;35.55;54.47;100440.44;5109377;27;65203;-39
2023/05/19 07:31:44;;;;;;;8.57;7.68;;;;;;;35.57;53.64;100452.78;5100678;27;69756;-39
2023/05/19 07:34:15;;;;;;;8.40;7.75;;;;;;;35.61;53.65;100449.50;5094837;27;66830;-40
2023/05/19 07:36:46;;;;;;;;;;;;;;;35.38;54.26;100450.69;5100088;27;69978;-39
2023/05/19 07:39:18;;;;;;;9.13;8.43;;;;;;;35.55;53.54;100430.38;5100374;27;66811;-41
2023/05/19 07:41:54;;;;;;;9.00;8.25;;;;;;;35.64;53.44;100443.56;5097781;27;70456;-39
2023/05/19 07:44:26;;;;;;;9.63;7.53;;;;;;;35.70;53.79;100445.22;5096818;27;66263;-40
2023/05/19 07:46:58;;;;;;;8.52;7.90;;;;;;;35.73;53.80;100441.97;5100311;27;70221;-40
2023/05/19 07:49:28;;;;;;;7.95;7.38;;;;;;;35.70;53.59;100434.31;5095782;27;66313;-40
2023/05/19 07:52:00;;;;;;;8.05;7.32;;;;;;;35.75;53.09;100439.81;5085650;27;69857;-39
2023/05/19 07:54:31;;;;;;;8.30;7.70;;;;;;;35.78;53.43;100436.53;5097854;27;66186;-39
2023/05/19 07:57:02;;;;;;;8.70;7.85;;;;;;;35.79;53.23;100440.91;5082910;27;69983;-39
2023/05/19 07:59:33;;;;;;;7.97;7.47;;;;;;;35.81;52.93;100438.75;5080846;27;66476;-38
2023/05/19 08:02:05;;;;;;;11.48;7.63;;;;;;;35.80;53.42;100434.34;5085211;27;70365;-38
2023/05/19 08:04:36;;;;;;;7.53;7.05;;;;;;;35.67;53.20;100419.28;5075786;27;65536;-39
2023/05/19 08:07:10;;;;;;;7.72;7.22;;;;;;;35.86;53.20;100441.50;5096572;27;69445;-39
2023/05/19 08:09:41;;;;;;;8.02;7.35;;;;;;;35.87;52.71;100434.13;5098379;27;66055;-39
2023/05/19 08:12:12;;;;;;;;;;;;;;;35.43;53.21;100399.72;5092258;27;70443;-39
2023/05/19 08:14:43;;;;;;;7.70;7.10;;;;;;;35.88;53.18;100422.13;5097460;27;65938;-39
2023/05/19 08:17:15;;;;;;;8.07;7.47;;;;;;;35.76;52.59;100392.31;5100420;27;69070;-40
2023/05/19 08:19:45;;;;;;;10.02;7.18;;;;;;;35.91;52.63;100407.94;5095506;27;66005;-39
2023/05/19 08:22:17;;;;;;;7.40;6.90;;;;;;;35.89;52.26;100397.28;5098106;27;69729;-40
2023/05/19 08:24:50;;;;;;;7.88;7.10;;;;;;;35.94;52.47;100405.50;5097211;27;66465;-39
2023/05/19 08:27:22;;;;;;;7.55;6.90;;;;;;;35.89;52.42;100391.03;5094270;27;70582;-39
2023/05/19 08:29:54;;;;;;;7.57;6.85;;;;;;;35.95;52.39;100407.16;5072904;27;66508;-39
2023/05/19 08:32:26;;;;;;;7.60;7.00;;;;;;;35.98;52.32;100403.88;5093504;27;70672;-39
2023/05/19 08:34:57;;;;;;;7.43;6.65;;;;;;;35.96;52.62;100403.31;5099739;27;66660;-39
2023/05/19 08:37:30;;;;;;;7.30;6.80;;;;;;;35.99;52.20;100391.88;5079984;27;69500;-39
2023/05/19 08:40:04;;;;;;;7.32;6.93;;;;;;;35.96;52.37;100386.94;5095757;27;66159;-40
2023/05/19 08:42:35;;;;;;;7.35;6.85;;;;;;;36.01;52.56;100400.63;5084650;27;69662;-39
2023/05/19 08:45:07;;;;;;;7.38;6.78;;;;;;;35.99;52.26;100391.88;5092458;27;66528;-39
2023/05/19 08:47:45;;;;;;;8.57;7.65;;;;;;;36.00;51.81;100390.78;5094402;27;70240;-40
2023/05/19 08:50:23;;;;;;;7.60;6.90;;;;;;;35.51;52.06;100306.50;5089768;27;66571;-39
2023/05/19 08:53:22;;;;;;;7.35;6.70;;;;;;;35.82;52.03;100374.88;5079590;27;70279;-39
2023/05/19 08:56:14;;;;;;;7.85;7.03;;;;;;;35.71;51.44;100337.72;5093759;27;66104;-40
2023/05/19 08:58:47;;;;;;;7.82;7.13;;;;;;;36.03;51.73;100382.06;5074228;27;70720;-39
2023/05/19 09:01:19;;;;;;;7.45;6.90;;;;;;;36.02;51.48;100374.97;5084876;27;65730;-40
2023/05/19 09:03:51;;;;;;;7.50;6.88;;;;;;;36.04;52.01;100361.03;5101150;27;70475;-39
2023/05/19 09:06:24;;;;;;;7.53;6.93;;;;;;;36.03;52.21;100360.22;5077763;27;66260;-39
2023/05/19 09:08:55;;;;;;;9.70;6.78;;;;;;;36.05;52.21;100367.31;5079102;27;69445;-40
2023/05/19 09:11:26;;;;;;;6.97;6.38;;;;;;;36.02;52.13;100369.50;5101803;27;67014;-40
2023/05/19 09:13:57;;;;;;;6.97;6.55;;;;;;;36.03;52.37;100365.69;5093890;27;70106;-39
2023/05/19 09:16:28;;;;;;;8.67;7.07;;;;;;;36.03;52.46;100362.97;5099936;27;66437;-39
2023/05/19 09:19:00;;;;;;;7.40;6.80;;;;;;;36.06;52.28;100355.34;5064869;27;70035;-38
2023/05/19 09:21:40;;;;;;;6.85;6.35;;;;;;;35.79;51.64;100318.09;5082386;27;66180;-41
2023/05/19 09:24:13;;;;;;;6.63;6.15;;;;;;;36.05;52.12;100345.47;5048809;27;69357;-39
2023/05/19 09:26:44;;;;;;;8.57;7.82;;;;;;;35.85;53.27;100336.13;5084270;27;65272;-39
2023/05/19 09:29:16;;;;;;;;;;;;;;;35.54;54.22;100341.44;5076700;27;69843;-40
2023/05/19 09:31:51;;;;;;;12.50;10.10;;;;;;;35.58;55.02;100342.59;5093337;27;66973;-40
2023/05/19 09:34:25;;;;;;;11.40;10.15;;;;;;;35.57;55.46;100346.38;5092387;27;69954;-39
2023/05/19 09:36:58;;;;;;;11.30;9.88;;;;;;;35.56;55.77;100352.94;5083323;27;66872;-39
2023/05/19 09:39:31;;;;;;;14.57;10.65;;;;;;;35.49;56.21;100348.75;5093243;27;70664;-39
2023/05/19 09:42:05;;;;;;;14.77;10.45;;;;;;;35.39;56.22;100338.63;5095858;27;66742;-39
2023/05/19 09:44:37;;;;;;;20.58;11.93;;;;;;;35.46;57.34;100361.03;5088101;27;70426;-40
2023/05/19 09:47:09;;;;;;;22.93;11.13;;;;;;;35.46;57.26;100358.28;5060875;27;65392;-40
2023/05/19 09:49:46;;;;;;;13.60;11.18;;;;;;;35.44;57.43;100357.75;5062107;27;70346;-40
2023/05/19 09:52:17;;;;;;;20.08;10.88;;;;;;;35.35;57.52;100364.78;5059274;27;67102;-40
2023/05/19 09:54:50;;;;;;;;;;;;;;;35.29;58.07;100377.56;5046679;27;69964;-41
2023/05/19 09:57:28;;;;;;;10.73;9.88;;;;;;;35.60;57.79;100398.78;5051422;27;66173;-39
2023/05/19 10:00:07;;;;;;;10.65;9.43;;;;;;;35.03;57.47;100285.78;5082635;27;70318;-40
2023/05/19 10:02:42;;;;;;;12.77;10.18;;;;;;;35.58;57.07;100396.31;5080771;27;67265;-42
2023/05/19 10:05:21;;;;;;;11.38;10.32;;;;;;;35.41;57.66;100369.19;5081411;27;68846;-40
2023/05/19 10:07:55;;;;;;;13.70;10.90;;;;;;;35.53;57.54;100405.25;5080312;27;66640;-39
2023/05/19 10:10:27;;;;;;;10.95;9.93;;;;;;;35.47;57.75;100395.41;5050763;28;70237;-41
2023/05/19 10:12:59;;;;;;;15.95;11.10;;;;;;;35.47;57.62;100397.31;5080529;27;65604;-39
2023/05/19 10:15:30;;;;;;;12.00;10.80;;;;;;;35.46;57.45;100399.19;5062055;28;71658;-39
2023/05/19 10:18:10;;;;;;;15.52;10.18;;;;;;;35.46;57.80;100404.66;5060388;27;66054;-40
2023/05/19 10:20:43;;;;;;;9.40;8.57;;;;;;;35.57;57.14;100395.47;5071290;27;70484;-39
2023/05/19 10:23:14;;;;;;;10.70;8.82;;;;;;;35.66;57.09;100392.25;5085704;27;66249;-40
2023/05/19 10:25:48;;;;;;;12.68;9.38;;;;;;;35.55;56.36;100370.38;5087644;27;70716;-40
2023/05/19 10:28:24;;;;;;;9.70;8.73;;;;;;;35.78;56.79;100395.59;5051936;27;65718;-40
2023/05/19 10:31:00;;;;;;;9.93;8.85;;;;;;;35.30;56.43;100315.66;5079800;27;69217;-39
2023/05/19 10:33:53;;;;;;;11.30;9.13;;;;;;;35.78;56.01;100409.25;5068721;27;65908;-38
2023/05/19 10:36:47;;;;;;;11.80;8.52;;;;;;;35.82;57.41;100423.19;5076836;27;69200;-42
2023/05/19 10:39:34;;;;;;;17.90;11.10;;;;;;;35.61;57.38;100417.63;5081204;27;66549;-39
2023/05/19 10:42:18;;;;;;;14.93;11.90;;;;;;;35.55;58.50;100414.00;5068201;27;69874;-39
2023/05/19 10:45:11;;;;;;;17.23;12.38;;;;;;;35.50;59.06;100419.44;5091084;27;66231;-43
2023/05/19 10:47:43;;;;;;;20.02;13.65;;;;;;;35.48;59.40;100429.78;5066630;27;70409;-40
2023/05/19 10:50:14;;;;;;;20.17;14.00;;;;;;;35.44;60.25;100417.75;5099410;27;66179;-39
2023/05/19 10:52:56;;;;;;;22.30;12.73;;;;;;;35.41;61.52;100410.09;5078256;27;70026;-38
2023/05/19 10:55:51;;;;;;;22.02;12.80;;;;;;;35.19;62.09;100393.00;5099239;27;66618;-39
2023/05/19 10:58:44;;;;;;;26.80;13.40;;;;;;;35.32;62.40;100415.19;5082781;27;70135;-39
2023/05/19 11:01:16;;;;;;;18.08;11.90;;;;;;;35.53;61.12;100427.09;5085948;27;65907;-39
2023/05/19 11:03:51;;;;;;;12.65;10.73;;;;;;;35.61;60.44;100433.16;5111404;27;70543;-39
2023/05/19 11:06:30;;;;;;;17.02;11.50;;;;;;;35.14;60.75;100353.75;5076691;27;66169;-46
2023/05/19 11:09:12;;;;;;;18.90;11.50;;;;;;;35.65;60.58;100434.28;5119752;27;69267;-39
2023/05/19 11:11:49;;;;;;;20.55;10.93;;;;;;;35.62;59.95;100423.91;5121830;27;66336;-39
2023/05/19 11:14:28;;;;;;;16.67;10.63;;;;;;;35.62;59.46;100423.91;5101313;27;68960;-39
2023/05/19 11:17:00;;;;;;;12.95;10.98;;;;;;;35.78;58.87;100440.09;5103752;27;64999;-39
2023/05/19 11:19:34;;;;;;;22.10;10.55;;;;;;;35.19;58.84;100343.94;5090032;27;70524;-41
2023/05/19 11:22:13;;;;;;;12.73;10.88;;;;;;;35.62;59.42;100421.16;5063736;27;65200;-44
2023/05/19 11:24:51;;;;;;;17.50;11.68;;;;;;;35.78;59.12;100451.00;5089972;27;69837;-39
2023/05/19 11:27:33;;;;;;;16.70;11.38;;;;;;;35.74;58.51;100449.88;5091551;27;66366;-39
2023/05/19 11:30:17;;;;;;;14.48;10.70;;;;;;;35.72;59.01;100445.78;5082883;27;70170;-40
2023/05/19 11:32:49;;;;;;;11.65;10.52;;;;;;;35.76;58.29;100442.25;5089021;27;66163;-39
2023/05/19 11:35:21;;;;;;;14.07;10.73;;;;;;;35.66;58.52;100428.56;5082526;27;69370;-41
2023/05/19 11:37:54;;;;;;;18.48;11.40;;;;;;;35.72;58.62;100445.78;5073748;27;65635;-40
2023/05/19 11:40:26;;;;;;;12.55;10.90;;;;;;;35.76;58.39;100452.34;5095020;27;69136;-40
2023/05/19 11:42:58;;;;;;;16.05;10.80;;;;;;;35.74;58.38;100454.50;5083944;27;65727;-39
2023/05/19 11:45:31;;;;;;;16.27;11.88;;;;;;;35.73;58.85;100458.34;5082203;27;70731;-45
2023/05/19 11:48:10;;;;;;;14.70;11.73;;;;;;;35.70;58.71;100461.59;5093191;27;66109;-39
2023/05/19 11:50:43;;;;;;;16.23;12.02;;;;;;;35.69;58.20;100463.50;5062871;27;68629;-40
2023/05/19 11:53:20;;;;;;;12.63;11.50;;;;;;;35.67;58.14;100457.47;5102681;27;66031;-40
2023/05/19 11:55:52;;;;;;;17.52;12.07;;;;;;;35.68;58.23;100461.84;5098480;27;69945;-40
2023/05/19 11:58:26;;;;;;;16.73;12.75;;;;;;;35.58;58.31;100465.34;5098753;27;66001;-39